createdAt,value
2016-03-28T12:33:40.395Z,17.71
2016-03-28T12:33:52.145Z,17.68
2016-03-28T12:34:52.352Z,17.53
2016-03-28T12:35:52.323Z,17.41
2016-03-28T12:36:52.170Z,17.24
2016-03-28T12:37:52.453Z,17.19
2016-03-28T12:38:52.316Z,16.99
2016-03-28T12:39:52.333Z,16.89
2016-03-28T12:40:52.336Z,16.74
2016-03-28T12:41:52.336Z,16.66
2016-03-28T12:42:52.325Z,16.68
2016-03-28T12:43:52.300Z,16.76
2016-03-28T12:44:52.303Z,16.8
2016-03-28T12:45:52.293Z,16.64
2016-03-28T12:46:52.269Z,16.59
2016-03-28T12:47:52.282Z,16.46
2016-03-28T12:48:52.280Z,16.25
2016-03-28T12:49:52.279Z,16.03
2016-03-28T12:50:52.276Z,15.84
2016-03-28T12:51:52.275Z,15.8
2016-03-28T12:52:52.183Z,15.65
2016-03-28T12:53:52.292Z,15.76
2016-03-28T12:54:52.277Z,15.7
2016-03-28T12:55:52.295Z,15.76
2016-03-28T12:56:52.295Z,15.83
2016-03-28T12:57:52.281Z,16.05
2016-03-28T12:58:52.300Z,16.24
2016-03-28T12:59:52.303Z,16.25
2016-03-28T13:00:52.305Z,16.32
2016-03-28T13:01:52.307Z,16.32
2016-03-28T13:02:52.294Z,16.4
2016-03-28T13:03:52.312Z,16.47
2016-03-28T13:04:52.314Z,16.54
2016-03-28T13:05:52.317Z,16.5
2016-03-28T13:06:52.319Z,16.65
2016-03-28T13:07:52.431Z,16.65
2016-03-28T13:08:52.340Z,16.62
2016-03-28T13:09:52.343Z,16.68
2016-03-28T13:10:52.346Z,16.65
2016-03-28T13:11:52.363Z,16.64
2016-03-28T13:12:52.351Z,16.65
2016-03-28T13:13:52.354Z,16.64
2016-03-28T13:14:52.356Z,16.65
2016-03-28T13:15:52.359Z,16.64
2016-03-28T13:16:52.362Z,16.74
2016-03-28T13:17:52.364Z,16.68
2016-03-28T13:18:52.367Z,16.72
2016-03-28T13:19:52.213Z,16.76
2016-03-28T13:20:52.373Z,16.77
2016-03-28T13:21:52.390Z,16.8
2016-03-28T13:22:52.378Z,16.8
2016-03-28T13:23:52.395Z,16.73
2016-03-28T13:24:52.398Z,16.83
2016-03-28T13:25:52.386Z,16.82
2016-03-28T13:26:52.388Z,16.92
2016-03-28T13:27:52.406Z,16.99
2016-03-28T13:28:52.409Z,17.13
2016-03-28T13:29:52.411Z,17.28
2016-03-28T13:30:52.414Z,17.3
2016-03-28T13:31:52.417Z,17.46
2016-03-28T13:32:52.419Z,17.6
2016-03-28T13:33:52.422Z,17.71
2016-03-28T13:34:52.425Z,17.71
2016-03-28T13:35:52.428Z,17.73
2016-03-28T13:36:52.430Z,17.71
2016-03-28T13:37:52.433Z,17.66
2016-03-28T13:38:52.436Z,17.49
2016-03-28T13:39:52.438Z,17.46
2016-03-28T13:40:52.441Z,17.57
2016-03-28T13:41:52.444Z,17.53
2016-03-28T13:42:52.446Z,17.66
2016-03-28T13:43:52.449Z,17.71
2016-03-28T13:44:52.468Z,17.84
2016-03-28T13:45:52.455Z,17.82
2016-03-28T13:46:52.473Z,17.84
2016-03-28T13:47:52.476Z,17.87
2016-03-28T13:48:52.478Z,17.71
2016-03-28T13:49:52.481Z,17.63
2016-03-28T13:50:52.484Z,17.44
2016-03-28T13:51:52.486Z,17.37
2016-03-28T13:52:52.490Z,17.2
2016-03-28T13:53:52.601Z,17.04
2016-03-28T13:54:52.495Z,16.92
2016-03-28T13:55:52.498Z,16.73
2016-03-28T13:56:52.500Z,16.72
2016-03-28T13:57:52.503Z,16.54
2016-03-28T13:58:52.505Z,16.51
2016-03-28T13:59:52.508Z,16.47
2016-03-28T14:00:52.515Z,16.5
2016-03-28T14:01:52.518Z,16.57
2016-03-28T14:02:52.521Z,16.57
2016-03-28T14:03:52.523Z,16.62
2016-03-28T14:04:52.526Z,16.66
2016-03-28T14:05:52.529Z,16.76
2016-03-28T14:06:52.532Z,16.82
2016-03-28T14:07:52.536Z,16.94
2016-03-28T14:08:52.538Z,17.19
2016-03-28T14:09:52.556Z,17.28
2016-03-28T14:10:52.558Z,17.31
2016-03-28T14:11:52.546Z,17.35
2016-03-28T14:12:52.564Z,17.24
2016-03-28T14:13:52.567Z,17.27
2016-03-28T14:14:52.569Z,17.2
2016-03-28T14:15:52.572Z,17.13
2016-03-28T14:16:52.560Z,17.05
2016-03-28T14:17:52.562Z,17.05
2016-03-28T14:18:52.580Z,16.94
2016-03-28T14:19:52.583Z,16.91
2016-03-28T14:20:52.430Z,16.91
2016-03-28T14:21:52.620Z,16.83
2016-03-28T14:22:52.591Z,16.86
2016-03-28T14:23:52.594Z,16.77
2016-03-28T14:24:52.597Z,16.68
2016-03-28T14:25:52.599Z,16.59
2016-03-28T14:26:52.602Z,16.58
2016-03-28T14:27:52.605Z,16.34
2016-03-28T14:28:52.623Z,16.16
2016-03-28T14:29:52.610Z,15.99
2016-03-28T14:30:52.613Z,15.88
2016-03-28T14:31:52.615Z,15.78
2016-03-28T14:32:52.618Z,15.75
2016-03-28T14:33:52.637Z,15.7
2016-03-28T14:34:52.623Z,15.65
2016-03-28T14:35:52.626Z,15.52
2016-03-28T14:36:52.645Z,15.3
2016-03-28T14:37:52.632Z,15.17
2016-03-28T14:38:52.650Z,15.08
2016-03-28T14:39:52.653Z,14.96
2016-03-28T14:40:52.656Z,14.79
2016-03-28T14:41:52.658Z,14.82
2016-03-28T14:42:52.661Z,14.78
2016-03-28T14:43:52.664Z,14.73
2016-03-28T14:44:52.666Z,14.73
2016-03-28T14:45:52.669Z,14.56
2016-03-28T14:46:52.672Z,14.43
2016-03-28T14:47:52.674Z,14.38
2016-03-28T14:48:52.521Z,14.36
2016-03-28T14:49:52.680Z,14.36
2016-03-28T14:50:52.682Z,14.31
2016-03-28T14:51:52.686Z,14.28
2016-03-28T14:52:52.688Z,14.2
2016-03-28T14:53:52.691Z,14.16
2016-03-28T14:54:52.693Z,14.04
2016-03-28T14:55:52.696Z,13.97
2016-03-28T14:56:52.699Z,13.82
2016-03-28T14:57:52.702Z,13.82
2016-03-28T14:58:52.719Z,13.78
2016-03-28T14:59:52.707Z,13.83
2016-03-28T15:00:52.725Z,13.73
2016-03-28T15:01:52.712Z,13.78
2016-03-28T15:02:52.730Z,13.75
2016-03-28T15:03:52.732Z,13.75
2016-03-28T15:04:52.735Z,13.67
2016-03-28T15:05:52.723Z,13.67
2016-03-28T15:06:52.725Z,13.57
2016-03-28T15:07:52.743Z,13.58
2016-03-28T15:08:52.731Z,13.55
2016-03-28T15:09:52.733Z,13.55
2016-03-28T15:10:52.736Z,13.52
2016-03-28T15:11:52.754Z,13.49
2016-03-28T15:12:52.756Z,13.47
2016-03-28T15:13:52.759Z,13.47
2016-03-28T15:14:52.747Z,13.46
2016-03-28T15:15:52.765Z,13.47
2016-03-28T15:16:52.767Z,13.47
2016-03-28T15:17:52.755Z,13.47
2016-03-28T15:18:52.945Z,13.49
2016-03-28T15:19:52.775Z,13.45
2016-03-28T15:20:52.763Z,13.42
2016-03-28T15:21:52.781Z,13.3
2016-03-28T15:22:52.768Z,13.33
2016-03-28T15:23:52.786Z,13.3
2016-03-28T15:24:52.774Z,13.27
2016-03-28T15:25:52.776Z,13.21
2016-03-28T15:26:52.794Z,13.23
2016-03-28T15:27:52.782Z,13.27
2016-03-28T15:28:52.644Z,13.23
2016-03-28T15:29:52.787Z,13.27
2016-03-28T15:30:52.805Z,13.16
2016-03-28T15:31:52.793Z,13.17
2016-03-28T15:32:52.795Z,13.28
2016-03-28T15:33:52.798Z,13.13
2016-03-28T15:34:53.191Z,13.26
2016-03-28T15:35:52.803Z,13.27
2016-03-28T15:36:52.821Z,13.31
2016-03-28T15:37:52.824Z,13.26
2016-03-28T15:38:52.826Z,13.28
2016-03-28T15:39:52.814Z,13.17
2016-03-28T15:40:52.817Z,13.13
2016-03-28T15:41:52.819Z,13.08
2016-03-28T15:42:52.822Z,13.09
2016-03-28T15:43:52.825Z,13.16
2016-03-28T15:44:52.828Z,13.13
2016-03-28T15:45:52.830Z,13.09
2016-03-28T15:46:52.833Z,13.03
2016-03-28T15:47:52.836Z,13.08
2016-03-28T15:48:52.853Z,12.99
2016-03-28T15:49:52.841Z,12.98
2016-03-28T15:50:52.844Z,12.9
2016-03-28T15:51:52.846Z,12.86
2016-03-28T15:52:52.849Z,12.94
2016-03-28T15:53:52.852Z,12.84
2016-03-28T15:54:52.869Z,12.7
2016-03-28T15:55:52.857Z,12.68
2016-03-28T15:56:52.860Z,12.73
2016-03-28T15:57:52.877Z,12.69
2016-03-28T15:58:52.865Z,12.63
2016-03-28T15:59:52.883Z,12.55
2016-03-28T16:00:52.871Z,12.57
2016-03-28T16:01:52.873Z,12.51
2016-03-28T16:02:52.720Z,12.45
2016-03-28T16:03:52.879Z,12.39
2016-03-28T16:04:52.881Z,12.35
2016-03-28T16:05:52.884Z,12.29
2016-03-28T16:06:52.887Z,12.32
2016-03-28T16:07:52.889Z,12.25
2016-03-28T16:08:52.923Z,12.2
2016-03-28T16:09:52.895Z,12.2
2016-03-28T16:10:52.897Z,12.15
2016-03-28T16:11:52.900Z,12.17
2016-03-28T16:12:52.887Z,12.12
2016-03-28T16:13:52.905Z,12.11
2016-03-28T16:14:52.892Z,12.12
2016-03-28T16:15:52.911Z,12.12
2016-03-28T16:16:52.898Z,12.12
2016-03-28T16:17:52.916Z,12.02
2016-03-28T16:18:52.919Z,12.08
2016-03-28T16:19:52.922Z,12.02
2016-03-28T16:20:52.924Z,11.99
2016-03-28T16:21:52.911Z,12
2016-03-28T16:22:52.930Z,12.03
2016-03-28T16:23:53.010Z,12.03
2016-03-28T16:24:52.919Z,12.02
2016-03-28T16:25:52.922Z,11.97
2016-03-28T16:26:52.924Z,12.02
2016-03-28T16:27:52.927Z,12.08
2016-03-28T16:28:52.930Z,11.96
2016-03-28T16:29:52.932Z,12.05
2016-03-28T16:30:52.935Z,12.02
2016-03-28T16:31:52.938Z,12.1
2016-03-28T16:32:52.941Z,11.97
2016-03-28T16:33:52.974Z,12.11
2016-03-28T16:34:52.946Z,11.97
2016-03-28T16:35:52.949Z,11.97
2016-03-28T16:36:52.951Z,12.05
2016-03-28T16:37:52.954Z,11.99
2016-03-28T16:38:53.020Z,11.99
2016-03-28T16:39:52.960Z,11.96
2016-03-28T16:40:52.962Z,12
2016-03-28T16:41:52.965Z,12.03
2016-03-28T16:42:52.967Z,11.91
2016-03-28T16:43:52.970Z,11.96
2016-03-28T16:44:52.973Z,11.99
2016-03-28T16:45:52.977Z,12
2016-03-28T16:46:52.965Z,11.99
2016-03-28T16:47:52.967Z,11.99
2016-03-28T16:48:52.970Z,12.02
2016-03-28T16:49:52.972Z,11.93
2016-03-28T16:50:52.990Z,11.99
2016-03-28T16:51:52.977Z,11.96
2016-03-28T16:52:52.995Z,12
2016-03-28T16:53:52.967Z,12
2016-03-28T16:54:52.986Z,12.03
2016-03-28T16:55:52.989Z,12
2016-03-28T16:56:52.992Z,11.95
2016-03-28T16:57:52.994Z,11.99
2016-03-28T16:58:52.997Z,12
2016-03-28T16:59:56.906Z,11.89
2016-03-28T17:00:53.002Z,11.93
2016-03-28T17:01:53.005Z,11.88
2016-03-28T17:02:53.007Z,11.86
2016-03-28T17:03:53.010Z,11.89
2016-03-28T17:04:53.012Z,11.8
2016-03-28T17:05:53.000Z,11.8
2016-03-28T17:06:53.018Z,11.78
2016-03-28T17:07:52.864Z,11.76
2016-03-28T17:08:53.024Z,11.78
2016-03-28T17:09:53.010Z,11.73
2016-03-28T17:10:53.013Z,11.78
2016-03-28T17:11:53.016Z,11.73
2016-03-28T17:12:53.018Z,11.77
2016-03-28T17:13:53.021Z,11.83
2016-03-28T17:14:53.024Z,11.76
2016-03-28T17:15:53.010Z,11.77
2016-03-28T17:16:53.030Z,11.65
2016-03-28T17:17:53.032Z,11.63
2016-03-28T17:18:53.019Z,11.59
2016-03-28T17:19:53.038Z,11.67
2016-03-28T17:20:53.477Z,11.53
2016-03-28T17:21:52.730Z,11.45
2016-03-28T17:22:53.077Z,11.51
2016-03-28T17:24:00.667Z,11.34
2016-03-28T17:24:52.894Z,11.37
2016-03-28T17:25:53.053Z,11.23
2016-03-28T17:26:53.039Z,11.23
2016-03-28T17:27:53.058Z,11.2
2016-03-28T17:28:53.045Z,11.12
2016-03-28T17:29:53.047Z,11.08
2016-03-28T17:30:53.050Z,10.98
2016-03-28T17:31:53.053Z,10.92
2016-03-28T17:32:53.071Z,10.86
2016-03-28T17:33:53.058Z,10.86
2016-03-28T17:34:53.061Z,10.82
2016-03-28T17:35:53.049Z,10.69
2016-03-28T17:36:53.051Z,10.71
2016-03-28T17:37:53.069Z,10.68
2016-03-28T17:38:53.057Z,10.61
2016-03-28T17:39:53.074Z,10.59
2016-03-28T17:40:53.062Z,10.51
2016-03-28T17:41:53.080Z,10.55
2016-03-28T17:42:53.067Z,10.46
2016-03-28T17:43:53.070Z,10.38
2016-03-28T17:44:53.073Z,10.33
2016-03-28T17:45:53.076Z,10.33
2016-03-28T17:46:53.078Z,10.34
2016-03-28T17:47:53.081Z,10.39
2016-03-28T17:48:53.083Z,10.33
2016-03-28T17:49:53.086Z,10.45
2016-03-28T17:50:53.089Z,10.53
2016-03-28T17:51:53.075Z,10.51
2016-03-28T17:52:53.093Z,10.58
2016-03-28T17:53:53.080Z,10.71
2016-03-28T17:54:53.083Z,10.71
2016-03-28T17:55:53.086Z,10.76
2016-03-28T17:56:53.089Z,10.8
2016-03-28T17:57:53.091Z,10.86
2016-03-28T17:58:53.094Z,10.77
2016-03-28T17:59:53.097Z,10.69
2016-03-28T18:00:53.100Z,10.69
2016-03-28T18:01:53.102Z,10.68
2016-03-28T18:02:53.105Z,10.76
2016-03-28T18:03:53.108Z,10.71
2016-03-28T18:04:53.094Z,10.75
2016-03-28T18:05:53.097Z,10.79
2016-03-28T18:06:53.099Z,10.83
2016-03-28T18:07:53.102Z,10.89
2016-03-28T18:08:53.105Z,10.84
2016-03-28T18:09:53.123Z,10.87
2016-03-28T18:10:53.110Z,10.84
2016-03-28T18:11:53.113Z,10.9
2016-03-28T18:12:53.116Z,10.94
2016-03-28T18:13:53.103Z,10.82
2016-03-28T18:14:53.106Z,10.84
2016-03-28T18:15:52.968Z,10.83
2016-03-28T18:16:53.126Z,10.86
2016-03-28T18:17:53.114Z,10.87
2016-03-28T18:18:53.117Z,10.79
2016-03-28T18:19:53.120Z,10.94
2016-03-28T18:20:53.122Z,11.02
2016-03-28T18:21:53.125Z,11
2016-03-28T18:22:53.128Z,11.01
2016-03-28T18:23:53.131Z,11.02
2016-03-28T18:24:53.117Z,10.94
2016-03-28T18:25:53.136Z,10.92
2016-03-28T18:26:53.123Z,10.89
2016-03-28T18:27:53.141Z,10.94
2016-03-28T18:28:53.128Z,11.02
2016-03-28T18:29:53.131Z,11.12
2016-03-28T18:30:53.133Z,11.04
2016-03-28T18:31:53.136Z,11.08
2016-03-28T18:32:53.139Z,11.18
2016-03-28T18:33:53.141Z,11.07
2016-03-28T18:34:53.126Z,11.15
2016-03-28T18:35:53.129Z,11.16
2016-03-28T18:36:53.132Z,11.16
2016-03-28T18:37:53.134Z,11.15
2016-03-28T18:38:53.137Z,11.18
2016-03-28T18:39:53.139Z,11.08
2016-03-28T18:40:53.143Z,10.97
2016-03-28T18:41:53.145Z,10.92
2016-03-28T18:42:53.148Z,10.94
2016-03-28T18:43:53.150Z,11
2016-03-28T18:44:53.137Z,11
2016-03-28T18:45:53.140Z,11.12
2016-03-28T18:46:53.142Z,11.04
2016-03-28T18:47:53.145Z,11.05
2016-03-28T18:48:53.164Z,11.1
2016-03-28T18:49:53.151Z,11.13
2016-03-28T18:50:53.248Z,11.15
2016-03-28T18:51:53.156Z,11.08
2016-03-28T18:52:53.143Z,11.08
2016-03-28T18:53:53.145Z,11.08
2016-03-28T18:54:53.148Z,11.08
2016-03-28T18:55:53.167Z,11.05
2016-03-28T18:56:53.153Z,11.07
2016-03-28T18:57:53.156Z,11.01
2016-03-28T18:58:53.175Z,11.07
2016-03-28T18:59:53.162Z,11.05
2016-03-28T19:00:53.149Z,11.1
2016-03-28T19:01:53.152Z,11
2016-03-28T19:02:53.169Z,11.01
2016-03-28T19:03:53.173Z,10.87
2016-03-28T19:04:53.160Z,11.01
2016-03-28T19:05:53.162Z,10.92
2016-03-28T19:06:53.166Z,10.98
2016-03-28T19:07:53.195Z,11.04
2016-03-28T19:08:53.166Z,11.07
2016-03-28T19:09:52.998Z,11.12
2016-03-28T19:10:53.172Z,11.1
2016-03-28T19:11:53.175Z,11.18
2016-03-28T19:12:53.162Z,11.05
2016-03-28T19:13:53.164Z,11.08
2016-03-28T19:14:53.183Z,11.08
2016-03-28T19:15:53.169Z,11
2016-03-28T19:16:53.172Z,10.98
2016-03-28T19:17:53.174Z,11
2016-03-28T19:18:53.178Z,10.95
2016-03-28T19:19:53.180Z,10.98
2016-03-28T19:20:53.168Z,11.04
2016-03-28T19:21:53.171Z,10.94
2016-03-28T19:22:53.173Z,10.94
2016-03-28T19:23:53.191Z,10.94
2016-03-28T19:24:53.179Z,10.89
2016-03-28T19:25:53.181Z,10.84
2016-03-28T19:26:53.184Z,10.82
2016-03-28T19:27:53.187Z,10.82
2016-03-28T19:28:53.204Z,10.82
2016-03-28T19:29:53.193Z,10.82
2016-03-28T19:30:53.195Z,10.84
2016-03-28T19:31:53.197Z,10.87
2016-03-28T19:32:53.185Z,10.94
2016-03-28T19:33:53.187Z,10.94
2016-03-28T19:34:53.190Z,10.87
2016-03-28T19:35:53.209Z,10.89
2016-03-28T19:36:53.195Z,10.82
2016-03-28T19:37:53.214Z,10.92
2016-03-28T19:38:53.201Z,10.84
2016-03-28T19:39:53.187Z,10.87
2016-03-28T19:40:53.189Z,10.79
2016-03-28T19:41:53.225Z,10.82
2016-03-28T19:42:53.195Z,10.82
2016-03-28T19:43:53.213Z,10.77
2016-03-28T19:44:53.201Z,10.8
2016-03-28T19:45:53.219Z,10.71
2016-03-28T19:46:53.191Z,10.68
2016-03-28T19:47:53.194Z,10.68
2016-03-28T19:48:53.196Z,10.67
2016-03-28T19:49:53.214Z,10.67
2016-03-28T19:50:53.217Z,10.57
2016-03-28T19:51:53.219Z,10.61
2016-03-28T19:52:53.222Z,10.58
2016-03-28T19:53:53.210Z,10.58
2016-03-28T19:54:53.072Z,10.43
2016-03-28T19:55:53.215Z,10.42
2016-03-28T19:56:53.218Z,10.46
2016-03-28T19:57:53.221Z,10.34
2016-03-28T19:58:53.223Z,10.36
2016-03-28T19:59:53.226Z,10.27
2016-03-28T20:00:53.212Z,10.28
2016-03-28T20:01:53.215Z,10.27
2016-03-28T20:02:53.202Z,10.2
2016-03-28T20:03:53.205Z,10.12
2016-03-28T20:04:53.223Z,10.12
2016-03-28T20:05:53.210Z,10.06
2016-03-28T20:06:53.213Z,9.97
2016-03-28T20:07:53.215Z,10
2016-03-28T20:08:53.234Z,9.81
2016-03-28T20:09:53.237Z,9.77
2016-03-28T20:10:53.223Z,9.67
2016-03-28T20:11:53.226Z,9.56
2016-03-28T20:12:53.229Z,9.55
2016-03-28T20:13:53.232Z,9.47
2016-03-28T20:14:53.220Z,9.33
2016-03-28T20:15:53.222Z,9.21
2016-03-28T20:16:53.224Z,9.26
2016-03-28T20:17:53.228Z,9.08
2016-03-28T20:18:53.230Z,9
2016-03-28T20:19:53.232Z,9
2016-03-28T20:20:53.235Z,8.96
2016-03-28T20:21:53.238Z,8.93
2016-03-28T20:22:53.241Z,8.93
2016-03-28T20:23:53.228Z,8.93
2016-03-28T20:24:53.230Z,8.92
2016-03-28T20:25:53.232Z,9
2016-03-28T20:26:53.236Z,9.02
2016-03-28T20:27:53.238Z,9.02
2016-03-28T20:28:53.241Z,9.11
2016-03-28T20:29:53.243Z,9.13
2016-03-28T20:30:53.246Z,9.19
2016-03-28T20:31:53.249Z,9.36
2016-03-28T20:32:53.237Z,9.37
2016-03-28T20:33:53.239Z,9.44
2016-03-28T20:34:53.242Z,9.49
2016-03-28T20:35:53.245Z,9.64
2016-03-28T20:36:53.247Z,9.74
2016-03-28T20:37:53.250Z,9.87
2016-03-28T20:38:53.252Z,10.05
2016-03-28T20:39:53.256Z,10.09
2016-03-28T20:40:53.242Z,10.2
2016-03-28T20:41:53.229Z,10.21
2016-03-28T20:42:53.248Z,10.27
2016-03-28T20:43:53.250Z,10.39
2016-03-28T20:44:53.237Z,10.42
2016-03-28T20:45:53.240Z,10.46
2016-03-28T20:46:53.242Z,10.46
2016-03-28T20:47:53.244Z,10.49
2016-03-28T20:48:53.247Z,10.48
2016-03-28T20:49:53.250Z,10.49
2016-03-28T20:50:53.253Z,10.57
2016-03-28T20:51:53.256Z,10.43
2016-03-28T20:52:53.258Z,10.45
2016-03-28T20:53:53.261Z,10.36
2016-03-28T20:54:53.155Z,10.55
2016-03-28T20:55:53.266Z,10.46
2016-03-28T20:56:53.269Z,10.53
2016-03-28T20:57:53.257Z,10.61
2016-03-28T20:58:53.259Z,10.49
2016-03-28T20:59:53.263Z,10.64
2016-03-28T21:00:53.265Z,10.67
2016-03-28T21:01:53.251Z,10.64
2016-03-28T21:02:53.271Z,10.62
2016-03-28T21:03:53.257Z,10.48
2016-03-28T21:04:53.260Z,10.49
2016-03-28T21:05:53.262Z,10.55
2016-03-28T21:06:53.249Z,10.67
2016-03-28T21:07:53.267Z,10.64
2016-03-28T21:08:53.271Z,10.69
2016-03-28T21:09:53.367Z,10.82
2016-03-28T21:10:53.259Z,10.83
2016-03-28T21:11:53.262Z,10.89
2016-03-28T21:12:53.265Z,10.94
2016-03-28T21:13:53.268Z,10.79
2016-03-28T21:14:53.271Z,10.92
2016-03-28T21:15:53.273Z,10.98
2016-03-28T21:16:53.276Z,10.95
2016-03-28T21:17:53.279Z,10.9
2016-03-28T21:18:53.281Z,10.9
2016-03-28T21:19:53.269Z,10.94
2016-03-28T21:20:53.271Z,10.89
2016-03-28T21:21:53.275Z,10.94
2016-03-28T21:22:53.277Z,10.94
2016-03-28T21:23:53.279Z,10.89
2016-03-28T21:24:53.313Z,10.83
2016-03-28T21:25:53.269Z,10.79
2016-03-28T21:26:53.288Z,10.79
2016-03-28T21:27:53.291Z,10.76
2016-03-28T21:28:53.277Z,10.82
2016-03-28T21:29:53.280Z,10.75
2016-03-28T21:30:53.283Z,10.72
2016-03-28T21:31:53.285Z,10.72
2016-03-28T21:32:53.287Z,10.71
2016-03-28T21:33:53.290Z,10.65
2016-03-28T21:34:53.293Z,10.67
2016-03-28T21:35:53.281Z,10.64
2016-03-28T21:36:53.284Z,10.67
2016-03-28T21:37:53.286Z,10.67
2016-03-28T21:38:53.289Z,10.68
2016-03-28T21:39:53.307Z,10.75
2016-03-28T21:40:53.294Z,10.76
2016-03-28T21:41:53.297Z,10.83
2016-03-28T21:42:53.283Z,10.83
2016-03-28T21:43:53.303Z,10.82
2016-03-28T21:44:53.289Z,10.77
2016-03-28T21:45:53.292Z,10.75
2016-03-28T21:46:53.295Z,10.83
2016-03-28T21:47:53.297Z,10.97
2016-03-28T21:48:53.295Z,10.97
2016-03-28T21:49:53.289Z,10.87
2016-03-28T21:50:53.283Z,10.97
2016-03-28T21:51:53.260Z,10.92
2016-03-28T21:52:53.254Z,10.98
2016-03-28T21:53:53.250Z,10.92
2016-03-28T21:54:53.250Z,10.95
2016-03-28T21:55:53.249Z,10.94
2016-03-28T21:56:53.233Z,11
2016-03-28T21:57:53.234Z,11.05
2016-03-28T21:58:53.234Z,11.12
2016-03-28T21:59:53.235Z,11.25
2016-03-28T22:00:53.236Z,11.26
2016-03-28T22:01:53.238Z,11.45
2016-03-28T22:02:53.240Z,11.53
2016-03-28T22:03:53.242Z,11.6
2016-03-28T22:04:53.245Z,11.67
2016-03-28T22:05:53.247Z,11.62
2016-03-28T22:06:53.248Z,11.59
2016-03-28T22:07:53.235Z,11.59
2016-03-28T22:08:53.254Z,11.52
2016-03-28T22:09:53.240Z,11.44
2016-03-28T22:10:53.242Z,11.45
2016-03-28T22:11:53.244Z,11.45
2016-03-28T22:12:53.230Z,11.53
2016-03-28T22:13:53.250Z,11.37
2016-03-28T22:14:53.252Z,11.38
2016-03-28T22:15:53.239Z,11.35
2016-03-28T22:16:53.241Z,11.38
2016-03-28T22:17:53.229Z,11.33
2016-03-28T22:18:53.246Z,11.27
2016-03-28T22:19:53.249Z,11.27
2016-03-28T22:20:53.236Z,11.2
2016-03-28T22:21:53.240Z,11.15
2016-03-28T22:22:53.242Z,11.07
2016-03-28T22:23:53.245Z,10.95
2016-03-28T22:24:53.248Z,10.95
2016-03-28T22:25:53.250Z,10.86
2016-03-28T22:26:53.253Z,10.79
2016-03-28T22:27:53.240Z,10.83
2016-03-28T22:28:53.242Z,10.8
2016-03-28T22:29:53.245Z,10.76
2016-03-28T22:30:53.248Z,10.86
2016-03-28T22:31:53.251Z,10.65
2016-03-28T22:32:53.253Z,10.69
2016-03-28T22:33:53.256Z,10.61
2016-03-28T22:34:53.259Z,10.48
2016-03-28T22:35:53.261Z,10.59
2016-03-28T22:36:53.264Z,10.41
2016-03-28T22:37:53.252Z,10.48
2016-03-28T22:38:53.254Z,10.41
2016-03-28T22:39:53.257Z,10.25
2016-03-28T22:40:53.260Z,10.12
2016-03-28T22:41:53.262Z,10.21
2016-03-28T22:42:53.249Z,10.1
2016-03-28T22:43:53.252Z,10.05
2016-03-28T22:44:53.270Z,10.17
2016-03-28T22:45:53.257Z,10.09
2016-03-28T22:46:53.260Z,10.18
2016-03-28T22:47:53.262Z,10.15
2016-03-28T22:48:53.265Z,10.24
2016-03-28T22:49:53.267Z,10.28
2016-03-28T22:50:53.271Z,10.34
2016-03-28T22:51:53.257Z,10.39
2016-03-28T22:52:53.276Z,10.34
2016-03-28T22:53:53.279Z,10.43
2016-03-28T22:54:53.265Z,10.42
2016-03-28T22:55:53.284Z,10.48
2016-03-28T22:56:53.271Z,10.55
2016-03-28T22:57:53.273Z,10.53
2016-03-28T22:58:53.276Z,10.53
2016-03-28T22:59:53.263Z,10.58
2016-03-28T23:00:53.314Z,10.61
2016-03-28T23:01:53.269Z,10.57
2016-03-28T23:02:53.272Z,10.51
2016-03-28T23:03:53.275Z,10.61
2016-03-28T23:04:53.277Z,10.58
2016-03-28T23:05:53.280Z,10.58
2016-03-28T23:06:53.298Z,10.51
2016-03-28T23:07:53.269Z,10.59
2016-03-28T23:08:53.288Z,10.49
2016-03-28T23:09:53.291Z,10.48
2016-03-28T23:10:53.309Z,10.57
2016-03-28T23:11:53.280Z,10.55
2016-03-28T23:12:53.283Z,10.55
2016-03-28T23:13:53.285Z,10.62
2016-03-28T23:14:53.288Z,10.65
2016-03-28T23:15:53.290Z,10.67
2016-03-28T23:16:53.278Z,10.68
2016-03-28T23:17:53.280Z,10.82
2016-03-28T23:18:53.282Z,10.82
2016-03-28T23:19:53.285Z,10.8
2016-03-28T23:20:53.304Z,10.86
2016-03-28T23:21:53.291Z,10.92
2016-03-28T23:22:53.294Z,10.97
2016-03-28T23:23:53.296Z,10.95
2016-03-28T23:24:53.299Z,10.97
2016-03-28T23:25:53.301Z,11.02
2016-03-28T23:26:53.290Z,11.02
2016-03-28T23:27:53.292Z,10.95
2016-03-28T23:28:53.294Z,10.9
2016-03-28T23:29:53.298Z,10.79
2016-03-28T23:30:53.284Z,10.84
2016-03-28T23:31:53.287Z,10.79
2016-03-28T23:32:53.290Z,10.8
2016-03-28T23:33:53.292Z,10.68
2016-03-28T23:34:53.295Z,10.57
2016-03-28T23:35:53.297Z,10.49
2016-03-28T23:36:53.301Z,10.45
2016-03-28T23:37:53.288Z,10.43
2016-03-28T23:38:53.290Z,10.38
2016-03-28T23:39:53.293Z,10.31
2016-03-28T23:40:53.311Z,10.2
2016-03-28T23:41:53.298Z,10.07
2016-03-28T23:42:53.302Z,10.02
2016-03-28T23:43:53.304Z,9.94
2016-03-28T23:44:53.307Z,9.9
2016-03-28T23:45:53.309Z,9.76
2016-03-28T23:46:53.312Z,9.76
2016-03-28T23:47:53.315Z,9.81
2016-03-28T23:48:53.317Z,9.64
2016-03-28T23:49:53.304Z,9.62
2016-03-28T23:50:53.307Z,9.54
2016-03-28T23:51:53.309Z,9.56
2016-03-28T23:52:53.312Z,9.52
2016-03-28T23:53:53.299Z,9.56
2016-03-28T23:54:53.302Z,9.4
2016-03-28T23:55:53.336Z,9.51
2016-03-28T23:56:53.307Z,9.45
2016-03-28T23:57:53.309Z,9.49
2016-03-28T23:58:53.312Z,9.39
2016-03-28T23:59:53.315Z,9.51
